createdAt,value
2023-06-30T00:01:49.527Z,68.90
2023-06-30T00:04:20.290Z,69.11
2023-06-30T00:06:50.740Z,69.29
2023-06-30T00:09:20.277Z,69.95
2023-06-30T00:11:51.418Z,70.30
2023-06-30T00:14:19.666Z,71.42
2023-06-30T00:16:48.253Z,71.71
2023-06-30T00:19:16.540Z,70.84
2023-06-30T00:21:46.141Z,71.78
2023-06-30T00:24:15.012Z,71.94
2023-06-30T00:26:43.340Z,72.78
2023-06-30T00:29:14.256Z,73.07
2023-06-30T00:31:42.461Z,73.79
2023-06-30T00:34:10.799Z,73.20
2023-06-30T00:36:38.915Z,73.00
2023-06-30T00:39:08.438Z,72.52
2023-06-30T00:41:36.551Z,73.30
2023-06-30T00:44:05.244Z,73.88
2023-06-30T00:46:34.325Z,73.68
2023-06-30T00:49:03.128Z,72.30
2023-06-30T00:51:31.559Z,73.09
2023-06-30T00:53:59.767Z,73.99
2023-06-30T00:56:29.309Z,74.53
2023-06-30T00:58:58.282Z,74.54
2023-06-30T01:01:43.574Z,73.99
2023-06-30T01:04:20.226Z,73.98
2023-06-30T01:07:00.792Z,74.60
2023-06-30T01:09:36.034Z,74.06
2023-06-30T01:12:07.134Z,73.35
2023-06-30T01:14:36.926Z,74.55
2023-06-30T01:17:07.925Z,74.36
2023-06-30T01:19:45.681Z,74.13
2023-06-30T01:22:25.374Z,73.89
2023-06-30T01:24:58.856Z,74.29
2023-06-30T01:27:28.874Z,74.54
2023-06-30T01:29:58.519Z,73.94
2023-06-30T01:32:27.484Z,71.57
2023-06-30T01:34:55.663Z,71.23
2023-06-30T01:37:23.932Z,71.57
2023-06-30T01:39:52.119Z,71.69
2023-06-30T01:42:21.478Z,71.22
2023-06-30T01:44:52.805Z,71.12
2023-06-30T01:47:21.431Z,72.11
2023-06-30T01:49:49.852Z,71.69
2023-06-30T01:52:18.284Z,71.38
2023-06-30T01:54:46.592Z,71.29
2023-06-30T01:57:14.712Z,71.64
2023-06-30T01:59:42.881Z,72.33
2023-06-30T02:02:13.327Z,72.39
2023-06-30T02:04:41.474Z,71.56
2023-06-30T02:07:09.635Z,72.01
2023-06-30T02:09:47.273Z,72.59
2023-06-30T02:12:16.661Z,72.22
2023-06-30T02:14:44.957Z,72.58
2023-06-30T02:17:14.858Z,72.20
2023-06-30T02:19:43.464Z,73.11
2023-06-30T02:22:11.695Z,73.41
2023-06-30T02:24:39.828Z,73.23
2023-06-30T02:27:09.858Z,73.54
2023-06-30T02:29:38.082Z,74.12
2023-06-30T02:32:07.048Z,74.97
2023-06-30T02:34:36.573Z,74.52
2023-06-30T02:37:05.160Z,74.59
2023-06-30T02:39:33.313Z,74.67
2023-06-30T02:42:01.501Z,74.55
2023-06-30T02:44:29.635Z,73.95
2023-06-30T02:46:57.815Z,73.99
2023-06-30T02:49:26.091Z,74.29
2023-06-30T02:51:55.695Z,74.43
2023-06-30T02:54:23.801Z,74.60
2023-06-30T02:56:51.939Z,74.63
2023-06-30T02:59:20.074Z,75.02
2023-06-30T03:01:48.285Z,75.17
2023-06-30T03:04:16.505Z,75.10
2023-06-30T03:06:44.724Z,72.96
2023-06-30T03:09:14.221Z,74.11
2023-06-30T03:11:42.360Z,74.65
2023-06-30T03:14:10.497Z,74.87
2023-06-30T03:16:38.798Z,74.71
2023-06-30T03:19:06.931Z,74.97
2023-06-30T03:21:36.178Z,73.94
2023-06-30T03:24:04.827Z,73.03
2023-06-30T03:26:34.497Z,73.34
2023-06-30T03:29:03.303Z,73.75
2023-06-30T03:31:31.850Z,74.38
2023-06-30T03:34:01.100Z,74.88
2023-06-30T03:36:29.571Z,74.64
2023-06-30T03:38:58.094Z,74.98
2023-06-30T03:41:27.990Z,75.17
2023-06-30T03:43:57.814Z,75.06
2023-06-30T03:46:26.006Z,74.71
2023-06-30T03:48:54.254Z,74.43
2023-06-30T03:51:22.451Z,74.44
2023-06-30T03:53:50.602Z,73.95
2023-06-30T03:56:18.797Z,73.81
2023-06-30T03:58:47.853Z,74.38
2023-06-30T04:01:17.446Z,74.35
2023-06-30T04:03:45.720Z,74.72
2023-06-30T04:06:13.997Z,74.39
2023-06-30T04:08:42.284Z,74.65
2023-06-30T04:11:10.446Z,74.33
2023-06-30T04:13:38.577Z,74.21
2023-06-30T04:16:07.179Z,74.34
2023-06-30T04:18:36.792Z,74.00
2023-06-30T04:21:05.027Z,74.54
2023-06-30T04:23:33.146Z,73.96
2023-06-30T04:26:01.919Z,74.10
2023-06-30T04:28:30.160Z,73.59
2023-06-30T04:30:59.516Z,73.80
2023-06-30T04:33:27.674Z,73.76
2023-06-30T04:35:57.223Z,73.48
2023-06-30T04:38:25.582Z,74.00
2023-06-30T04:40:53.815Z,73.64
2023-06-30T04:43:22.049Z,73.25
2023-06-30T04:45:50.422Z,73.07
2023-06-30T04:48:18.671Z,72.71
2023-06-30T04:50:46.959Z,72.70
2023-06-30T04:53:16.601Z,72.38
2023-06-30T04:55:45.095Z,72.46
2023-06-30T04:58:13.575Z,72.59
2023-06-30T05:00:43.913Z,72.02
2023-06-30T05:03:12.224Z,71.93
2023-06-30T05:05:40.453Z,68.83
2023-06-30T05:08:08.623Z,69.69
2023-06-30T05:10:38.700Z,68.47
2023-06-30T05:13:06.858Z,67.87
2023-06-30T05:15:34.990Z,67.38
2023-06-30T05:18:03.277Z,67.73
2023-06-30T05:20:33.257Z,68.41
2023-06-30T05:23:01.557Z,68.02
2023-06-30T05:25:29.744Z,67.03
2023-06-30T05:27:59.249Z,66.89
2023-06-30T05:30:27.494Z,67.57
2023-06-30T05:32:55.715Z,67.27
2023-06-30T05:35:23.911Z,66.64
2023-06-30T05:37:52.102Z,66.30
2023-06-30T05:40:20.735Z,66.51
2023-06-30T05:42:48.923Z,65.96
2023-06-30T05:45:18.786Z,66.50
2023-06-30T05:47:47.018Z,65.66
2023-06-30T05:50:15.232Z,65.64
2023-06-30T05:52:43.377Z,65.34
2023-06-30T05:55:11.517Z,65.21
2023-06-30T05:57:39.723Z,64.64
2023-06-30T06:00:09.993Z,63.45
2023-06-30T06:02:39.748Z,63.18
2023-06-30T06:05:09.068Z,62.79
2023-06-30T06:07:38.184Z,61.81
2023-06-30T06:10:08.266Z,62.30
2023-06-30T06:12:36.494Z,61.67
2023-06-30T06:15:05.256Z,61.50
2023-06-30T06:17:33.482Z,61.87
2023-06-30T06:20:03.489Z,60.43
2023-06-30T06:22:31.643Z,60.00
2023-06-30T06:24:59.807Z,60.77
2023-06-30T06:27:29.930Z,59.31
2023-06-30T06:29:58.072Z,58.68
2023-06-30T06:32:26.203Z,58.54
2023-06-30T06:34:54.369Z,57.00
2023-06-30T06:37:23.938Z,57.16
2023-06-30T06:39:52.086Z,57.76
2023-06-30T06:42:20.278Z,57.71
2023-06-30T06:44:48.454Z,58.58
2023-06-30T06:48:14.623Z,58.79
2023-06-30T06:50:42.788Z,57.61
2023-06-30T06:53:12.609Z,56.66
2023-06-30T06:55:40.760Z,57.39
2023-06-30T06:58:08.888Z,56.82
2023-06-30T07:00:37.036Z,56.92
2023-06-30T07:03:05.443Z,57.46
2023-06-30T07:05:33.575Z,58.15
2023-06-30T07:08:01.749Z,58.63
2023-06-30T07:10:32.239Z,57.79
2023-06-30T07:13:00.510Z,58.16
2023-06-30T07:15:28.679Z,56.98
2023-06-30T07:17:58.208Z,57.71
2023-06-30T07:20:26.935Z,58.88
2023-06-30T07:22:57.876Z,58.89
2023-06-30T07:25:26.826Z,58.15
2023-06-30T07:27:58.242Z,57.80
2023-06-30T07:30:28.519Z,58.41
2023-06-30T07:32:57.561Z,58.63
2023-06-30T07:35:26.371Z,58.49
2023-06-30T07:37:54.521Z,57.43
2023-06-30T07:40:24.168Z,56.25
2023-06-30T07:42:54.415Z,56.04
2023-06-30T07:45:24.215Z,56.86
2023-06-30T07:47:53.281Z,57.51
2023-06-30T07:50:21.611Z,56.98
2023-06-30T07:52:51.249Z,57.30
2023-06-30T07:55:20.479Z,56.34
2023-06-30T07:57:50.527Z,54.63
2023-06-30T08:00:19.878Z,53.65
2023-06-30T08:02:50.101Z,53.67
2023-06-30T08:05:18.596Z,52.76
2023-06-30T08:07:50.453Z,52.39
2023-06-30T08:10:19.816Z,52.27
2023-06-30T08:12:48.288Z,51.95
2023-06-30T08:15:16.689Z,52.79
2023-06-30T08:17:51.864Z,51.96
2023-06-30T08:20:26.062Z,52.83
2023-06-30T08:22:55.070Z,53.04
2023-06-30T08:25:25.218Z,53.58
2023-06-30T08:27:54.311Z,52.73
2023-06-30T08:30:24.910Z,52.50
2023-06-30T08:32:55.820Z,52.43
2023-06-30T08:35:26.726Z,53.06
2023-06-30T08:37:54.882Z,52.93
2023-06-30T08:40:30.369Z,52.35
2023-06-30T08:43:03.747Z,53.71
2023-06-30T08:45:32.142Z,54.05
2023-06-30T08:48:07.022Z,52.50
2023-06-30T08:50:37.536Z,52.17
2023-06-30T08:53:07.003Z,52.19
2023-06-30T08:55:38.031Z,49.88
2023-06-30T08:58:13.422Z,50.04
2023-06-30T09:00:49.519Z,50.73
2023-06-30T09:03:18.150Z,50.67
2023-06-30T09:05:49.910Z,51.90
2023-06-30T09:08:24.489Z,52.19
2023-06-30T09:10:56.085Z,49.81
2023-06-30T09:13:26.732Z,49.83
2023-06-30T09:15:59.828Z,50.37
2023-06-30T09:18:28.632Z,50.71
2023-06-30T09:20:58.381Z,49.57
2023-06-30T09:23:28.467Z,48.74
2023-06-30T09:25:56.667Z,49.74
2023-06-30T09:28:24.787Z,49.81
2023-06-30T09:30:52.958Z,49.66
2023-06-30T09:33:21.946Z,50.59
2023-06-30T09:35:51.254Z,50.88
2023-06-30T09:38:22.324Z,51.57
2023-06-30T09:40:52.394Z,51.99
2023-06-30T09:43:23.392Z,52.92
2023-06-30T09:45:58.006Z,53.34
2023-06-30T09:48:31.982Z,53.76
2023-06-30T09:51:00.456Z,54.77
2023-06-30T09:53:37.697Z,56.44
2023-06-30T09:56:07.014Z,58.61
2023-06-30T09:58:37.080Z,61.32
2023-06-30T10:01:05.340Z,65.13
2023-06-30T10:03:33.866Z,65.74
2023-06-30T10:06:02.669Z,67.19
2023-06-30T10:08:33.542Z,69.67
2023-06-30T10:11:01.852Z,71.92
2023-06-30T10:13:31.100Z,72.54
2023-06-30T10:16:00.371Z,72.82
2023-06-30T10:18:29.066Z,72.85
2023-06-30T10:20:57.327Z,73.48
2023-06-30T10:23:28.210Z,71.69
2023-06-30T10:25:58.833Z,68.58
2023-06-30T10:28:27.832Z,69.33
2023-06-30T10:30:56.319Z,64.93
2023-06-30T10:33:24.550Z,63.61
2023-06-30T10:35:54.351Z,62.01
2023-06-30T10:38:23.483Z,61.40
2023-06-30T10:40:51.723Z,60.85
2023-06-30T10:43:21.244Z,60.34
2023-06-30T10:46:11.547Z,60.11
2023-06-30T10:48:42.425Z,59.98
2023-06-30T10:51:14.573Z,59.47
2023-06-30T10:53:45.899Z,59.57
2023-06-30T10:56:14.258Z,60.20
2023-06-30T10:58:44.932Z,59.42
2023-06-30T11:01:16.794Z,58.46
2023-06-30T11:04:21.298Z,57.53
2023-06-30T11:07:05.386Z,57.17
2023-06-30T11:09:59.638Z,59.78
2023-06-30T11:12:29.885Z,58.47
2023-06-30T11:15:01.710Z,58.44
2023-06-30T11:18:00.971Z,60.12
2023-06-30T11:20:30.896Z,60.90
2023-06-30T11:23:01.954Z,60.11
2023-06-30T11:25:32.080Z,59.97
2023-06-30T11:28:02.805Z,60.00
2023-06-30T11:30:37.315Z,58.09
2023-06-30T11:33:08.622Z,58.89
2023-06-30T11:35:38.414Z,58.58
2023-06-30T11:38:10.228Z,58.77
2023-06-30T11:40:47.677Z,59.38
2023-06-30T11:43:16.344Z,59.31
2023-06-30T11:45:57.194Z,60.27
2023-06-30T11:48:25.471Z,60.69
2023-06-30T11:50:53.685Z,59.09
2023-06-30T11:53:22.041Z,57.92
2023-06-30T11:55:52.195Z,58.37
2023-06-30T11:58:20.991Z,59.59
2023-06-30T12:00:50.523Z,60.79
2023-06-30T12:03:19.187Z,62.23
2023-06-30T12:05:58.081Z,61.33
2023-06-30T12:08:30.164Z,61.69
2023-06-30T12:10:58.460Z,62.32
2023-06-30T12:13:30.164Z,62.13
2023-06-30T12:16:01.127Z,62.25
2023-06-30T12:18:37.784Z,62.96
2023-06-30T12:21:11.863Z,62.26
2023-06-30T12:23:44.554Z,60.94
2023-06-30T12:26:13.613Z,59.29
2023-06-30T12:28:43.582Z,58.61
2023-06-30T12:31:13.481Z,58.21
2023-06-30T12:33:41.715Z,57.08
2023-06-30T12:36:09.982Z,57.83
2023-06-30T12:38:38.198Z,56.64
2023-06-30T12:41:06.342Z,57.46
2023-06-30T12:43:35.478Z,59.00
2023-06-30T12:46:03.756Z,58.10
2023-06-30T12:48:33.915Z,58.82
2023-06-30T12:51:02.504Z,60.48
2023-06-30T12:53:30.807Z,61.27
2023-06-30T12:55:58.993Z,61.36
2023-06-30T12:58:28.394Z,60.16
2023-06-30T13:01:00.924Z,59.23
2023-06-30T13:03:30.613Z,59.71
2023-06-30T13:06:00.329Z,59.61
2023-06-30T13:08:28.489Z,59.45
2023-06-30T13:10:57.210Z,61.11
2023-06-30T13:13:25.431Z,62.55
2023-06-30T13:15:54.272Z,64.22
2023-06-30T13:18:22.454Z,64.50
2023-06-30T13:20:50.667Z,64.91
2023-06-30T13:23:28.066Z,65.36
2023-06-30T13:26:04.451Z,65.61
2023-06-30T13:28:33.110Z,66.19
2023-06-30T13:31:01.428Z,67.05
2023-06-30T13:33:29.626Z,67.45
2023-06-30T13:35:57.849Z,67.64
2023-06-30T13:38:30.188Z,69.24
2023-06-30T13:40:58.364Z,68.83
2023-06-30T13:43:26.535Z,69.59
2023-06-30T13:45:56.740Z,68.42
2023-06-30T13:48:24.942Z,68.90
2023-06-30T13:50:53.136Z,70.41
2023-06-30T13:53:21.698Z,71.15
2023-06-30T13:55:53.855Z,72.49
2023-06-30T13:58:22.052Z,72.85
2023-06-30T14:00:50.409Z,72.93
2023-06-30T14:03:18.614Z,75.01
2023-06-30T14:05:50.195Z,77.04
2023-06-30T14:08:18.930Z,78.45
2023-06-30T14:10:47.310Z,80.26
2023-06-30T14:13:17.152Z,80.74
2023-06-30T14:15:45.700Z,82.35
2023-06-30T14:18:14.208Z,83.80
2023-06-30T14:20:44.155Z,84.00
2023-06-30T14:23:12.465Z,82.55
2023-06-30T14:25:40.646Z,81.91
2023-06-30T14:28:09.117Z,80.95
2023-06-30T14:30:38.642Z,81.41
2023-06-30T14:33:06.906Z,81.52
2023-06-30T14:35:35.206Z,81.31
2023-06-30T14:38:03.918Z,80.22
2023-06-30T14:40:32.210Z,79.06
2023-06-30T14:43:01.546Z,79.31
2023-06-30T14:45:31.161Z,77.61
2023-06-30T14:48:00.756Z,77.30
2023-06-30T14:50:28.930Z,77.39
2023-06-30T14:52:57.079Z,77.21
2023-06-30T14:55:25.345Z,76.43
2023-06-30T14:57:53.918Z,76.21
2023-06-30T15:00:22.250Z,75.85
2023-06-30T15:02:50.631Z,74.92
2023-06-30T15:05:20.357Z,73.54
2023-06-30T15:07:48.646Z,73.93
2023-06-30T15:10:16.828Z,73.77
2023-06-30T15:12:44.942Z,69.51
2023-06-30T15:15:13.134Z,68.86
2023-06-30T15:17:41.395Z,69.59
2023-06-30T15:20:10.609Z,68.96
2023-06-30T15:22:40.207Z,67.00
2023-06-30T15:25:09.312Z,66.75
2023-06-30T15:27:37.510Z,66.97
2023-06-30T15:30:07.250Z,65.88
2023-06-30T15:32:35.631Z,66.28
2023-06-30T15:35:05.871Z,63.62
2023-06-30T15:37:34.072Z,63.92
2023-06-30T15:40:04.073Z,64.24
2023-06-30T15:42:32.805Z,64.79
2023-06-30T15:45:01.321Z,64.95
2023-06-30T15:47:29.579Z,62.67
2023-06-30T15:49:57.848Z,61.75
2023-06-30T15:52:26.071Z,62.03
2023-06-30T15:55:13.608Z,62.49
2023-06-30T15:57:42.210Z,63.58
2023-06-30T16:00:13.330Z,64.41
2023-06-30T16:02:41.770Z,64.01
2023-06-30T16:05:11.050Z,63.94
2023-06-30T16:07:39.434Z,62.94
2023-06-30T16:10:08.749Z,62.55
2023-06-30T16:12:38.320Z,61.49
2023-06-30T16:15:09.175Z,62.51
2023-06-30T16:17:37.863Z,63.51
2023-06-30T16:20:07.715Z,62.12
2023-06-30T16:22:35.958Z,62.46
2023-06-30T16:25:04.157Z,62.77
2023-06-30T16:27:32.365Z,62.79
2023-06-30T16:30:27.545Z,63.42
2023-06-30T16:32:59.013Z,64.34
2023-06-30T16:35:28.044Z,65.30
2023-06-30T16:37:58.086Z,66.70
2023-06-30T16:40:26.220Z,65.83
2023-06-30T16:42:54.811Z,65.66
2023-06-30T16:45:25.242Z,66.21
2023-06-30T16:47:53.879Z,66.84
2023-06-30T16:50:22.230Z,67.10
2023-06-30T16:52:51.553Z,67.59
2023-06-30T16:55:19.884Z,67.83
2023-06-30T16:57:49.072Z,69.45
2023-06-30T17:00:18.615Z,67.70
2023-06-30T17:02:49.904Z,68.73
2023-06-30T17:05:18.503Z,70.04
2023-06-30T17:07:46.804Z,67.66
2023-06-30T17:10:15.114Z,68.30
2023-06-30T17:12:43.275Z,67.96
2023-06-30T17:15:12.192Z,68.03
2023-06-30T17:17:40.385Z,67.50
2023-06-30T17:20:11.163Z,68.01
2023-06-30T17:22:39.506Z,68.34
2023-06-30T17:25:09.168Z,67.77
2023-06-30T17:27:37.342Z,67.65
2023-06-30T17:30:06.508Z,64.83
2023-06-30T17:32:34.744Z,64.57
2023-06-30T17:35:03.259Z,63.96
2023-06-30T17:37:32.830Z,63.76
2023-06-30T17:40:01.094Z,64.32
2023-06-30T17:42:29.277Z,63.77
2023-06-30T17:44:57.462Z,63.34
2023-06-30T17:47:25.653Z,64.77
2023-06-30T17:49:53.962Z,64.62
2023-06-30T17:52:22.200Z,65.65
2023-06-30T17:54:51.727Z,66.50
2023-06-30T17:57:19.902Z,66.94
2023-06-30T17:59:48.101Z,67.28
2023-06-30T18:02:16.636Z,66.58
2023-06-30T18:04:44.954Z,66.70
2023-06-30T18:07:14.229Z,67.64
2023-06-30T18:09:45.501Z,67.68
2023-06-30T18:12:15.331Z,68.08
2023-06-30T18:14:44.320Z,69.13
2023-06-30T18:17:12.855Z,69.44
2023-06-30T18:19:42.210Z,70.00
2023-06-30T18:22:10.707Z,69.54
2023-06-30T18:24:38.920Z,69.03
2023-06-30T18:27:07.409Z,69.07
2023-06-30T18:29:38.693Z,68.87
2023-06-30T18:32:08.366Z,69.75
2023-06-30T18:34:36.589Z,69.07
2023-06-30T18:37:08.231Z,69.73
2023-06-30T18:39:36.465Z,70.61
2023-06-30T18:42:05.147Z,71.26
2023-06-30T18:44:35.984Z,71.20
2023-06-30T18:47:06.713Z,70.78
2023-06-30T18:49:35.298Z,71.35
2023-06-30T18:52:03.802Z,72.15
2023-06-30T18:54:32.009Z,71.80
2023-06-30T18:57:00.224Z,71.93
2023-06-30T18:59:28.396Z,71.94
2023-06-30T19:01:56.587Z,72.05
2023-06-30T19:04:26.404Z,71.63
2023-06-30T19:06:54.620Z,71.23
2023-06-30T19:09:22.785Z,71.97
2023-06-30T19:11:51.008Z,72.69
2023-06-30T19:14:19.169Z,72.16
2023-06-30T19:16:47.391Z,72.52
2023-06-30T19:19:15.700Z,72.32
2023-06-30T19:21:45.376Z,70.97
2023-06-30T19:24:14.744Z,71.43
2023-06-30T19:26:42.934Z,71.90
2023-06-30T19:29:11.128Z,72.34
2023-06-30T19:31:39.426Z,73.39
2023-06-30T19:34:07.607Z,72.65
2023-06-30T19:36:37.550Z,72.77
2023-06-30T19:39:07.780Z,73.27
2023-06-30T19:41:36.011Z,73.90
2023-06-30T19:44:05.339Z,74.07
2023-06-30T19:46:35.126Z,74.53
2023-06-30T19:49:03.344Z,74.33
2023-06-30T19:51:31.558Z,74.97
2023-06-30T19:53:59.774Z,74.33
2023-06-30T19:56:29.307Z,75.33
2023-06-30T19:58:57.528Z,75.79
2023-06-30T20:01:26.863Z,76.04
2023-06-30T20:03:55.820Z,74.47
2023-06-30T20:06:24.073Z,75.52
2023-06-30T20:08:52.227Z,76.57
2023-06-30T20:11:20.620Z,76.46
2023-06-30T20:13:50.173Z,76.62
2023-06-30T20:16:18.492Z,77.09
2023-06-30T20:18:46.688Z,77.04
2023-06-30T20:21:14.896Z,77.22
2023-06-30T20:23:43.031Z,76.70
2023-06-30T20:26:11.204Z,77.19
2023-06-30T20:28:39.334Z,77.29
2023-06-30T20:31:08.948Z,77.34
2023-06-30T20:33:37.401Z,76.97
2023-06-30T20:36:05.807Z,76.53
2023-06-30T20:38:34.063Z,77.74
2023-06-30T20:41:02.272Z,78.07
2023-06-30T20:43:30.550Z,78.05
2023-06-30T20:45:58.731Z,78.25
2023-06-30T20:48:28.362Z,77.64
2023-06-30T20:50:56.497Z,78.09
2023-06-30T20:53:24.763Z,77.71
2023-06-30T20:55:56.004Z,78.32
2023-06-30T20:58:24.203Z,77.67
2023-06-30T21:00:52.467Z,77.34
2023-06-30T21:03:20.711Z,77.97
2023-06-30T21:05:50.286Z,78.62
2023-06-30T21:08:18.498Z,77.81
2023-06-30T21:10:47.105Z,76.27
2023-06-30T21:13:15.574Z,76.79
2023-06-30T21:15:43.802Z,75.40
2023-06-30T21:18:12.281Z,76.08
2023-06-30T21:20:40.470Z,77.34
2023-06-30T21:23:10.001Z,78.36
2023-06-30T21:25:38.154Z,78.78
2023-06-30T21:28:06.444Z,78.11
2023-06-30T21:30:34.582Z,78.87
2023-06-30T21:33:04.252Z,79.15
2023-06-30T21:35:34.020Z,79.52
2023-06-30T21:38:02.174Z,79.65
2023-06-30T21:40:31.696Z,79.18
2023-06-30T21:42:59.808Z,78.99
2023-06-30T21:45:27.976Z,78.99
2023-06-30T21:47:56.132Z,79.38
2023-06-30T21:50:24.312Z,78.78
2023-06-30T21:52:52.465Z,78.73
2023-06-30T21:55:21.067Z,78.93
2023-06-30T21:57:50.685Z,77.88
2023-06-30T22:00:19.539Z,77.35
2023-06-30T22:02:56.189Z,77.56
2023-06-30T22:05:24.619Z,78.73
2023-06-30T22:07:52.789Z,77.58
2023-06-30T22:10:21.012Z,77.01
2023-06-30T22:12:50.533Z,77.71
2023-06-30T22:15:20.682Z,78.38
2023-06-30T22:17:52.345Z,78.43
2023-06-30T22:20:22.771Z,78.30
2023-06-30T22:22:50.949Z,78.83
2023-06-30T22:25:21.202Z,78.82
2023-06-30T22:27:53.908Z,77.48
2023-06-30T22:30:22.280Z,77.78
2023-06-30T22:32:50.760Z,78.25
2023-06-30T22:35:18.979Z,78.33
2023-06-30T22:37:47.192Z,77.14
2023-06-30T22:40:17.026Z,77.72
2023-06-30T22:42:45.342Z,76.96
2023-06-30T22:45:20.981Z,78.03
2023-06-30T22:47:52.844Z,78.40
2023-06-30T22:50:33.981Z,77.61
2023-06-30T22:53:17.900Z,77.55
2023-06-30T22:56:11.934Z,78.25
2023-06-30T22:58:45.996Z,78.64
2023-06-30T23:01:19.957Z,77.69
2023-06-30T23:03:56.423Z,78.50
2023-06-30T23:06:33.799Z,78.08
2023-06-30T23:09:11.009Z,78.25
2023-06-30T23:11:47.996Z,77.92
2023-06-30T23:14:24.774Z,77.95
2023-06-30T23:17:28.179Z,78.62
2023-06-30T23:20:46.795Z,78.73
2023-06-30T23:23:37.416Z,77.76
2023-06-30T23:26:15.163Z,76.22
2023-06-30T23:28:53.772Z,77.09
2023-06-30T23:39:48.132Z,78.11
2023-06-30T23:42:16.414Z,77.84
2023-06-30T23:44:44.576Z,77.39
2023-06-30T23:47:17.837Z,77.88
2023-06-30T23:49:48.328Z,77.81
2023-06-30T23:52:17.342Z,76.68
2023-06-30T23:54:46.865Z,77.37
2023-06-30T23:57:14.998Z,78.47
2023-06-30T23:59:43.228Z,78.90
